White Pigeon, Iowa
Current Conditions -  °F | °C
As of 4:55 AM on Friday 19 Dec 2014 (Local Time) from KOOA Reporting Station
Overcast Overcast  
Wind Chill: 26°   Ceiling: 6000
Heat Index: 26°   Visibility: 10mi
Dew Point: 23°   Wind: 0mph
Humidity: 88%   Direction: NA
Pressure: 30.27"   Gusts: NA
Location:  41.5522°N, 92.1189°W
Report Text: KOOA 191055Z AUTO 00000KT 10SM OVC060 M03/M05 A3027 RMK AO2 T10311048
Loading
Personal Weather Stations






























Interactive Weather Map New forecast layout! Learn more

10-Day Weather Forecast

Advertisements
Track Severe Weather on mobile